Time;durP1;ratioP1;P1;durP2;ratioP2;P2;SDS_P1;SDS_P2;PMS_P1;PMS_P2;Temp;Humidity;BMP_temperature;BMP_pressure;BME280_temperature;BME280_humidity;BME280_pressure;Samples;Min_cycle;Max_cycle;Signal;HPM_P1;HPM_P2
2022/02/24 00:00:15;;;;;;;89.93;85.68;;;;;;;4.81;58.63;101571.25;682808;28;68453;-69
2022/02/24 00:00:38;;;;;;;75.90;72.32;;;;;;;4.85;58.83;101575.38;680335;28;138114;-69
2022/02/24 00:00:59;;;;;;;71.60;68.25;;;;;;;4.85;58.87;101577.22;685603;28;23485;-69
2022/02/24 00:01:20;;;;;;;84.80;80.85;;;;;;;4.87;58.68;101578.81;688219;28;23281;-68
2022/02/24 00:01:42;;;;;;;81.55;77.75;;;;;;;4.87;58.81;101577.94;691326;28;22318;-69
2022/02/24 00:02:03;;;;;;;79.47;75.75;;;;;;;4.86;58.61;101571.75;689684;28;44366;-68
2022/02/24 00:02:24;;;;;;;91.68;87.40;;;;;;;4.86;58.57;101576.25;690194;28;44382;-68
2022/02/24 00:02:46;;;;;;;86.93;82.90;;;;;;;4.86;58.80;101577.09;691065;28;21519;-69
2022/02/24 00:03:08;;;;;;;79.10;75.40;;;;;;;4.84;58.75;101576.38;691122;28;23431;-69
2022/02/24 00:03:32;;;;;;;88.18;84.07;;;;;;;4.82;58.90;101570.25;690509;28;44479;-69
2022/02/24 00:03:53;;;;;;;100.07;95.38;;;;;;;4.82;58.77;101572.09;688451;28;92252;-69
2022/02/24 00:04:14;;;;;;;89.53;85.32;;;;;;;4.82;58.78;101566.75;691319;28;22375;-69
2022/02/24 00:04:35;;;;;;;80.32;76.63;;;;;;;4.81;58.96;101576.59;691414;28;23475;-69
2022/02/24 00:04:57;;;;;;;74.88;71.38;;;;;;;4.82;58.87;101572.94;691477;28;22402;-71
2022/02/24 00:05:18;;;;;;;83.15;79.25;;;;;;;4.81;58.97;101571.25;690536;28;44191;-68
2022/02/24 00:05:40;;;;;;;81.30;77.50;;;;;;;4.83;59.11;101568.47;690254;28;44157;-69
2022/02/24 00:06:02;;;;;;;74.93;71.40;;;;;;;4.81;59.07;101565.91;690949;28;13787;-69
2022/02/24 00:06:24;;;;;;;88.38;84.22;;;;;;;4.82;58.99;101572.94;689671;28;45411;-69
2022/02/24 00:06:45;;;;;;;86.13;82.05;;;;;;;4.85;58.83;101570.03;690457;28;45395;-68
2022/02/24 00:07:06;;;;;;;78.53;74.82;;;;;;;4.83;58.95;101563.94;691418;28;23441;-69
2022/02/24 00:07:28;;;;;;;72.57;69.15;;;;;;;4.83;58.97;101563.94;691306;28;21508;-68
2022/02/24 00:07:51;;;;;;;88.45;84.30;;;;;;;4.84;59.10;101568.34;690128;28;46198;-68
2022/02/24 00:08:12;;;;;;;88.50;84.40;;;;;;;4.85;58.99;101562.00;689280;28;69403;-68
2022/02/24 00:08:34;;;;;;;79.43;75.68;;;;;;;4.86;58.97;101563.72;690766;28;23416;-68
2022/02/24 00:08:55;;;;;;;72.30;68.90;;;;;;;4.86;58.72;101565.53;690200;28;45303;-68
2022/02/24 00:09:16;;;;;;;77.87;74.23;;;;;;;4.86;58.91;101563.72;691400;28;23558;-68
2022/02/24 00:09:38;;;;;;;80.67;76.87;;;;;;;4.85;59.07;101556.63;690294;28;44413;-68
2022/02/24 00:10:00;;;;;;;75.00;71.50;;;;;;;4.84;58.94;101565.66;690526;28;46367;-68
2022/02/24 00:10:21;;;;;;;85.85;81.80;;;;;;;4.81;58.88;101565.91;690619;28;46298;-68
2022/02/24 00:10:42;;;;;;;88.70;84.55;;;;;;;4.80;59.00;101558.00;691156;28;22380;-68
2022/02/24 00:11:04;;;;;;;81.13;77.32;;;;;;;4.78;59.14;101565.25;691532;28;21422;-67
2022/02/24 00:11:25;;;;;;;74.38;70.88;;;;;;;4.78;59.22;101570.63;689404;28;46465;-68
2022/02/24 00:11:46;;;;;;;84.95;80.95;;;;;;;4.75;59.16;101570.84;690868;28;22425;-68
2022/02/24 00:12:07;;;;;;;87.78;83.68;;;;;;;4.72;59.07;101571.97;691004;28;23289;-68
2022/02/24 00:12:29;;;;;;;78.35;74.68;;;;;;;4.69;59.04;101572.19;689847;28;45416;-68
2022/02/24 00:12:51;;;;;;;75.50;71.95;;;;;;;4.68;59.34;101571.31;691348;28;23730;-68
2022/02/24 00:13:13;;;;;;;92.68;88.32;;;;;;;4.68;59.35;101568.66;690536;28;43711;-69
2022/02/24 00:13:34;;;;;;;75.43;71.90;;;;;;;4.68;59.30;101574.00;690188;28;47235;-69
2022/02/24 00:13:55;;;;;;;61.75;58.85;;;;;;;4.69;59.38;101569.53;690909;28;22395;-68
2022/02/24 00:14:17;;;;;;;140.57;133.73;;;;;;;4.66;59.29;101573.28;691612;28;21520;-68
2022/02/24 00:14:38;;;;;;;221.60;210.75;;;;;;;4.68;59.54;101565.13;690375;28;46293;-68
2022/02/24 00:15:00;;;;;;;226.87;215.77;;;;;;;4.69;59.46;101561.50;691262;28;23389;-68
2022/02/24 00:15:21;;;;;;;219.27;208.55;;;;;;;4.68;59.60;101567.81;690811;28;46391;-68
2022/02/24 00:15:43;;;;;;;215.98;205.38;;;;;;;4.66;59.49;101573.28;687725;28;20393;-68
2022/02/24 00:16:04;;;;;;;252.50;240.15;;;;;;;4.62;59.52;101566.44;687257;28;44380;-70
2022/02/24 00:16:26;;;;;;;253.80;241.48;;;;;;;4.59;59.46;101568.50;686811;28;44123;-69
2022/02/24 00:16:47;;;;;;;241.60;229.80;;;;;;;4.59;59.52;101560.50;688485;28;22384;-69
2022/02/24 00:17:08;;;;;;;231.10;219.77;;;;;;;4.58;59.57;101572.19;683843;28;21524;-68
2022/02/24 00:17:30;;;;;;;220.35;209.57;;;;;;;4.57;59.52;101563.28;684942;28;22289;-68
2022/02/24 00:17:51;;;;;;;222.85;211.95;;;;;;;4.56;59.68;101566.94;686352;28;43666;-68
2022/02/24 00:18:12;;;;;;;244.80;232.85;;;;;;;4.57;59.55;101567.78;687309;28;22342;-69
2022/02/24 00:18:34;;;;;;;239.98;228.27;;;;;;;4.57;59.61;101565.94;686965;28;23486;-68
2022/02/24 00:18:55;;;;;;;228.00;216.82;;;;;;;4.56;59.84;101566.94;684294;28;44211;-68
2022/02/24 00:19:17;;;;;;;227.70;216.55;;;;;;;4.57;59.60;101565.94;687003;28;46344;-67
2022/02/24 00:19:38;;;;;;;250.25;238.10;;;;;;;4.54;59.54;101565.34;688375;28;22339;-67
2022/02/24 00:20:01;;;;;;;242.95;231.15;;;;;;;4.53;59.65;101567.19;688175;28;22387;-68
2022/02/24 00:20:22;;;;;;;231.70;220.38;;;;;;;4.51;59.81;101567.28;686496;28;68619;-68
2022/02/24 00:20:43;;;;;;;240.68;228.95;;;;;;;4.51;59.71;101561.94;688835;28;22404;-68
2022/02/24 00:21:05;;;;;;;274.60;261.27;;;;;;;4.51;59.76;101564.63;691207;28;21701;-68
2022/02/24 00:21:26;;;;;;;264.73;251.88;;;;;;;4.53;59.80;101567.19;685228;28;46333;-69
2022/02/24 00:21:47;;;;;;;253.35;240.95;;;;;;;4.57;59.99;101563.28;687207;28;21512;-67
2022/02/24 00:22:08;;;;;;;241.55;229.75;;;;;;;4.62;59.89;101569.13;687032;28;22404;-68
2022/02/24 00:22:31;;;;;;;231.43;220.13;;;;;;;4.64;59.86;101556.50;687003;28;21384;-68
2022/02/24 00:22:54;;;;;;;239.52;227.80;;;;;;;4.64;59.58;101560.97;684987;28;69432;-69
2022/02/24 00:23:15;;;;;;;250.50;238.30;;;;;;;4.63;59.46;101567.31;686352;28;67595;-69
2022/02/24 00:23:36;;;;;;;241.27;229.57;;;;;;;4.64;59.67;101561.84;690554;28;21526;-68
2022/02/24 00:23:58;;;;;;;232.02;220.63;;;;;;;4.64;59.44;101564.53;690330;28;23499;-68
2022/02/24 00:24:19;;;;;;;235.27;223.75;;;;;;;4.61;59.63;101556.72;689932;28;45044;-68
2022/02/24 00:24:40;;;;;;;265.67;252.77;;;;;;;4.64;59.57;101563.66;690682;28;23494;-68
2022/02/24 00:25:02;;;;;;;270.60;257.50;;;;;;;4.64;59.50;101563.66;690832;28;23483;-67
2022/02/24 00:25:24;;;;;;;269.45;256.42;;;;;;;4.63;59.73;101564.66;690747;28;44398;-69
2022/02/24 00:25:48;;;;;;;293.50;279.27;;;;;;;4.62;59.62;101566.44;690514;28;36516;-68
2022/02/24 00:26:09;;;;;;;309.80;294.90;;;;;;;4.60;59.54;101560.38;691055;28;23371;-68
2022/02/24 00:26:30;;;;;;;297.35;283.02;;;;;;;4.60;59.64;101559.53;690493;28;21496;-67
2022/02/24 00:26:51;;;;;;;288.05;274.13;;;;;;;4.60;59.77;101557.69;691229;28;24187;-68
2022/02/24 00:27:13;;;;;;;277.15;263.75;;;;;;;4.60;59.59;101562.19;690784;28;21071;-68
2022/02/24 00:27:35;;;;;;;293.08;278.90;;;;;;;4.59;59.57;101565.84;690188;28;46151;-69
2022/02/24 00:27:56;;;;;;;311.52;296.45;;;;;;;4.56;59.55;101563.41;690012;28;44345;-68
2022/02/24 00:28:18;;;;;;;301.20;286.67;;;;;;;4.56;59.60;101566.06;686723;28;22390;-68
2022/02/24 00:28:39;;;;;;;291.67;277.60;;;;;;;4.56;59.59;101572.28;686189;28;45254;-68
2022/02/24 00:29:00;;;;;;;287.90;274.05;;;;;;;4.54;59.68;101571.53;686927;28;22382;-69
2022/02/24 00:29:22;;;;;;;301.98;287.52;;;;;;;4.54;59.59;101568.88;687085;28;21524;-68
2022/02/24 00:29:43;;;;;;;277.90;264.52;;;;;;;4.55;59.63;101573.25;686987;28;23503;-68
2022/02/24 00:30:06;;;;;;;241.10;229.38;;;;;;;4.54;59.62;101568.03;686619;28;46308;-69
2022/02/24 00:30:27;;;;;;;266.92;254.00;;;;;;;4.53;59.75;101564.50;689667;28;67508;-68
2022/02/24 00:30:48;;;;;;;292.10;278.02;;;;;;;4.52;59.58;101570.81;691064;28;22413;-69
2022/02/24 00:31:09;;;;;;;297.55;283.25;;;;;;;4.51;59.69;101566.41;691308;28;23451;-69
2022/02/24 00:31:31;;;;;;;286.17;272.38;;;;;;;4.53;59.80;101568.97;687100;28;23455;-69
2022/02/24 00:31:53;;;;;;;300.58;286.13;;;;;;;4.51;59.71;101564.63;688741;28;14415;-69
2022/02/24 00:32:14;;;;;;;312.10;297.15;;;;;;;4.48;59.60;101556.84;688422;28;22401;-69
2022/02/24 00:32:35;;;;;;;300.17;285.77;;;;;;;4.49;59.70;101569.22;688110;28;21503;-69
2022/02/24 00:32:57;;;;;;;288.95;275.05;;;;;;;4.51;59.81;101561.06;687568;28;47080;-69
2022/02/24 00:33:18;;;;;;;296.50;282.27;;;;;;;4.51;59.87;101556.59;688132;28;44259;-69
2022/02/24 00:33:39;;;;;;;311.25;296.35;;;;;;;4.51;59.94;101558.41;691273;28;23462;-68
2022/02/24 00:34:00;;;;;;;300.13;285.67;;;;;;;4.53;59.94;101559.16;691155;28;23442;-68
2022/02/24 00:34:23;;;;;;;285.98;272.17;;;;;;;4.53;59.82;101556.47;691415;28;23474;-69
2022/02/24 00:34:45;;;;;;;306.95;292.25;;;;;;;4.53;59.83;101556.47;686993;28;43118;-69
2022/02/24 00:35:07;;;;;;;304.70;290.02;;;;;;;4.50;59.82;101565.59;687577;28;44353;-68
2022/02/24 00:35:28;;;;;;;291.73;277.70;;;;;;;4.50;59.87;101560.22;687346;28;45304;-68
2022/02/24 00:35:49;;;;;;;300.70;286.23;;;;;;;4.51;59.96;101558.41;688051;28;21551;-69
2022/02/24 00:36:11;;;;;;;321.65;306.10;;;;;;;4.50;59.77;101556.72;687640;28;46236;-69
2022/02/24 00:36:32;;;;;;;306.50;291.73;;;;;;;4.50;59.79;101560.22;687536;28;22552;-69
2022/02/24 00:36:54;;;;;;;295.02;280.83;;;;;;;4.50;59.98;101562.06;690548;28;44282;-68
2022/02/24 00:37:16;;;;;;;285.60;271.83;;;;;;;4.51;59.89;101559.28;690499;28;45222;-69
2022/02/24 00:37:40;;;;;;;296.25;281.98;;;;;;;4.51;59.83;101558.41;689316;28;69363;-69
2022/02/24 00:38:03;;;;;;;292.48;278.35;;;;;;;4.50;59.72;101565.59;689196;28;69431;-68
2022/02/24 00:38:24;;;;;;;282.75;269.13;;;;;;;4.49;59.75;101563.88;690299;28;46328;-68
2022/02/24 00:38:45;;;;;;;303.50;288.85;;;;;;;4.48;59.84;101555.97;691277;28;21363;-69
2022/02/24 00:39:07;;;;;;;310.23;295.20;;;;;;;4.51;60.02;101569.09;689461;28;46240;-68
2022/02/24 00:39:28;;;;;;;297.35;282.95;;;;;;;4.51;59.98;101561.94;689222;28;45250;-69
2022/02/24 00:39:49;;;;;;;284.00;270.30;;;;;;;4.53;59.88;101560.94;690702;28;23448;-68
2022/02/24 00:40:12;;;;;;;303.05;288.48;;;;;;;4.53;59.88;101564.50;690977;28;21530;-69
2022/02/24 00:40:33;;;;;;;312.83;297.73;;;;;;;4.53;59.88;101551.13;689677;28;69321;-69
2022/02/24 00:40:54;;;;;;;300.88;286.35;;;;;;;4.54;59.72;101560.00;691246;28;21522;-68
2022/02/24 00:41:15;;;;;;;290.48;276.48;;;;;;;4.54;59.86;101560.84;691372;28;23396;-68
2022/02/24 00:41:37;;;;;;;301.73;287.17;;;;;;;4.53;59.74;101560.94;689698;28;44214;-69
2022/02/24 00:41:59;;;;;;;331.40;315.52;;;;;;;4.50;59.69;101557.56;691320;28;24220;-69
2022/02/24 00:42:20;;;;;;;319.90;304.58;;;;;;;4.50;59.90;101554.03;689360;28;69392;-69
2022/02/24 00:42:41;;;;;;;306.98;292.27;;;;;;;4.49;60.03;101555.84;691016;28;19411;-70
2022/02/24 00:43:03;;;;;;;292.98;278.92;;;;;;;4.48;59.98;101561.31;690864;28;22391;-69
2022/02/24 00:43:24;;;;;;;286.40;272.70;;;;;;;4.46;60.11;101548.03;690367;28;46355;-69
2022/02/24 00:43:45;;;;;;;309.60;294.80;;;;;;;4.44;59.93;101557.19;691185;28;23734;-68
2022/02/24 00:44:06;;;;;;;305.60;290.88;;;;;;;4.45;60.14;101549.03;691124;28;21534;-69
2022/02/24 00:44:27;;;;;;;293.95;279.77;;;;;;;4.45;60.02;101556.19;691291;28;22384;-68
2022/02/24 00:44:49;;;;;;;287.63;273.77;;;;;;;4.43;60.03;101558.97;691171;28;21249;-68
2022/02/24 00:45:11;;;;;;;303.17;288.58;;;;;;;4.41;60.14;101557.41;690180;28;46314;-68
2022/02/24 00:45:32;;;;;;;296.83;282.50;;;;;;;4.41;60.28;101552.06;690769;28;21531;-68
2022/02/24 00:45:53;;;;;;;291.77;277.52;;;;;;;4.40;60.21;101559.22;689038;28;44376;-68
2022/02/24 00:46:14;;;;;;;311.45;296.25;;;;;;;4.39;60.14;101556.66;690349;28;22398;-69
2022/02/24 00:46:36;;;;;;;303.13;288.48;;;;;;;4.37;60.22;101555.94;689584;28;22386;-69
2022/02/24 00:46:57;;;;;;;293.73;279.45;;;;;;;4.37;60.06;101558.59;687461;28;44737;-68
2022/02/24 00:47:18;;;;;;;291.90;277.80;;;;;;;4.36;60.31;101554.22;688479;28;21540;-68
2022/02/24 00:47:42;;;;;;;311.60;296.58;;;;;;;4.33;60.18;101547.28;686796;28;46397;-68
2022/02/24 00:48:03;;;;;;;298.50;284.02;;;;;;;4.33;60.19;101555.31;687062;28;46526;-68
2022/02/24 00:48:24;;;;;;;285.88;272.02;;;;;;;4.33;60.25;101555.31;687105;28;45230;-68
2022/02/24 00:48:45;;;;;;;286.50;272.60;;;;;;;4.35;60.44;101553.38;688901;28;21539;-68
2022/02/24 00:49:07;;;;;;;301.88;287.30;;;;;;;4.37;60.32;101554.09;690946;28;23470;-68
2022/02/24 00:49:28;;;;;;;294.17;279.90;;;;;;;4.38;60.31;101557.66;690144;28;45080;-68
2022/02/24 00:49:49;;;;;;;291.90;277.80;;;;;;;4.40;60.34;101553.03;690515;28;21145;-68
2022/02/24 00:50:11;;;;;;;316.10;300.85;;;;;;;4.41;60.44;101549.38;690668;28;22391;-67
2022/02/24 00:50:33;;;;;;;309.67;294.70;;;;;;;4.42;60.20;101543.03;689820;28;46298;-68
2022/02/24 00:50:54;;;;;;;299.35;284.85;;;;;;;4.43;60.19;101555.47;691082;28;22393;-69
2022/02/24 00:51:15;;;;;;;296.77;282.38;;;;;;;4.44;60.19;101558.03;691330;28;22399;-68
2022/02/24 00:51:37;;;;;;;319.75;304.38;;;;;;;4.44;60.20;101551.84;690515;28;22434;-68
2022/02/24 00:51:59;;;;;;;311.52;296.50;;;;;;;4.42;60.19;101556.41;689041;28;68314;-68
2022/02/24 00:52:20;;;;;;;299.98;285.52;;;;;;;4.44;60.27;101555.34;690079;28;45483;-68
2022/02/24 00:52:42;;;;;;;288.73;274.80;;;;;;;4.45;60.06;101561.53;691190;28;22391;-68
2022/02/24 00:53:06;;;;;;;311.27;296.25;;;;;;;4.44;60.12;101554.50;690486;28;45258;-68
2022/02/24 00:53:27;;;;;;;318.33;302.92;;;;;;;4.44;60.26;101549.16;689208;28;69443;-69
2022/02/24 00:53:48;;;;;;;303.95;289.20;;;;;;;4.44;60.30;101546.47;691335;28;22385;-68
2022/02/24 00:54:10;;;;;;;293.63;279.42;;;;;;;4.43;60.11;101553.63;690897;28;23612;-68
2022/02/24 00:54:31;;;;;;;299.00;284.55;;;;;;;4.42;60.20;101546.59;690370;28;46180;-68
2022/02/24 00:54:52;;;;;;;317.73;302.40;;;;;;;4.40;60.12;101551.19;691246;28;22399;-68
2022/02/24 00:55:14;;;;;;;304.52;289.85;;;;;;;4.40;60.24;101547.66;690365;28;46449;-68
2022/02/24 00:55:35;;;;;;;289.63;275.60;;;;;;;4.40;60.32;101553.03;690794;28;23514;-68
2022/02/24 00:55:56;;;;;;;298.10;283.60;;;;;;;4.40;60.21;101550.34;689336;28;44481;-68
2022/02/24 00:56:17;;;;;;;305.60;290.83;;;;;;;4.40;60.26;101550.34;689738;28;22311;-68
2022/02/24 00:56:39;;;;;;;295.20;280.90;;;;;;;4.40;60.32;101547.66;690578;28;21545;-68
2022/02/24 00:57:00;;;;;;;295.38;281.02;;;;;;;4.40;60.36;101545.84;689829;28;46113;-68
2022/02/24 00:57:22;;;;;;;311.50;296.42;;;;;;;4.38;60.38;101545.13;691146;28;23171;-68
2022/02/24 00:57:44;;;;;;;301.88;287.23;;;;;;;4.41;60.33;101557.41;690829;28;21664;-68
2022/02/24 00:58:05;;;;;;;289.70;275.65;;;;;;;4.39;60.29;101541.47;689781;28;45229;-68
2022/02/24 00:58:26;;;;;;;299.55;285.00;;;;;;;4.38;60.46;101545.13;689718;28;45373;-68
2022/02/24 00:58:47;;;;;;;301.50;286.98;;;;;;;4.36;60.43;101544.38;689380;28;22013;-68
2022/02/24 00:59:09;;;;;;;289.10;275.20;;;;;;;4.36;60.32;101549.75;689417;28;21509;-68
2022/02/24 00:59:31;;;;;;;312.87;297.83;;;;;;;4.36;60.42;101548.88;689628;28;22425;-68
2022/02/24 00:59:52;;;;;;;313.98;298.92;;;;;;;4.33;60.47;101547.28;688020;28;69406;-68
2022/02/24 01:00:14;;;;;;;302.63;288.02;;;;;;;4.32;60.56;101541.06;689796;28;22386;-68
2022/02/24 01:00:35;;;;;;;290.63;276.52;;;;;;;4.32;60.55;101541.06;688910;28;44359;-68
2022/02/24 01:00:57;;;;;;;317.73;302.35;;;;;;;4.32;60.42;101553.59;690771;28;22411;-68
2022/02/24 01:01:18;;;;;;;331.30;315.35;;;;;;;4.31;60.59;101541.19;689514;28;46390;-69
2022/02/24 01:01:42;;;;;;;317.55;302.27;;;;;;;4.29;60.54;101543.13;691037;28;22312;-69
2022/02/24 01:02:04;;;;;;;304.63;290.00;;;;;;;4.28;60.50;101541.44;689374;28;69498;-69
2022/02/24 01:02:25;;;;;;;292.55;278.65;;;;;;;4.29;60.56;101543.97;691601;28;1837;-69
2022/02/24 01:02:46;;;;;;;308.90;294.20;;;;;;;4.29;60.75;101543.97;691315;28;22387;-68
2022/02/24 01:03:07;;;;;;;314.52;299.60;;;;;;;4.29;60.57;101533.28;691153;28;21222;-70
2022/02/24 01:03:29;;;;;;;302.27;287.90;;;;;;;4.26;60.65;101533.53;691495;28;21560;-69
2022/02/24 01:03:51;;;;;;;323.75;308.30;;;;;;;4.27;60.80;101540.56;690375;28;45185;-69
2022/02/24 01:04:12;;;;;;;349.55;332.88;;;;;;;4.26;60.65;101538.03;691178;28;23467;-70
2022/02/24 01:04:34;;;;;;;333.08;317.15;;;;;;;4.22;60.58;101534.72;690884;28;22554;-69
2022/02/24 01:04:55;;;;;;;319.33;304.02;;;;;;;4.20;60.63;101533.13;690255;28;45491;-69
2022/02/24 01:05:16;;;;;;;307.35;292.60;;;;;;;4.20;60.67;101536.69;690799;28;21918;-68
2022/02/24 01:05:37;;;;;;;294.88;280.77;;;;;;;4.21;60.58;101543.72;690269;28;45634;-69
2022/02/24 01:05:59;;;;;;;318.63;303.27;;;;;;;4.21;60.65;101540.19;690491;28;24407;-69
2022/02/24 01:06:20;;;;;;;321.67;306.27;;;;;;;4.19;60.42;101537.63;688476;28;46418;-68
2022/02/24 01:06:41;;;;;;;308.20;293.48;;;;;;;4.19;60.63;101532.28;690600;28;21387;-69
2022/02/24 01:07:04;;;;;;;294.70;280.52;;;;;;;4.21;60.66;101537.53;690816;28;22422;-70
2022/02/24 01:07:25;;;;;;;298.33;284.02;;;;;;;4.19;60.63;101534.97;690170;28;46471;-69
2022/02/24 01:07:46;;;;;;;302.95;288.40;;;;;;;4.19;60.55;101534.97;690550;28;46356;-69
2022/02/24 01:08:09;;;;;;;292.00;277.90;;;;;;;4.22;60.69;101529.38;691176;28;22204;-69
2022/02/24 01:08:30;;;;;;;318.38;303.08;;;;;;;4.23;60.38;101533.78;690135;28;46314;-70
2022/02/24 01:08:52;;;;;;;323.27;307.65;;;;;;;4.26;60.56;101533.53;690962;28;22329;-70
2022/02/24 01:09:13;;;;;;;309.42;294.58;;;;;;;4.28;60.51;101533.44;690397;28;46328;-69
2022/02/24 01:09:34;;;;;;;296.98;282.75;;;;;;;4.27;60.35;101531.72;691190;28;23415;-70
2022/02/24 01:09:56;;;;;;;299.58;285.13;;;;;;;4.25;60.41;101533.66;690219;28;44371;-70
2022/02/24 01:10:17;;;;;;;321.27;305.77;;;;;;;4.24;60.30;101534.63;690026;28;46280;-70
2022/02/24 01:10:39;;;;;;;313.10;298.05;;;;;;;4.24;60.59;101535.47;690883;28;17466;-69
2022/02/24 01:11:00;;;;;;;301.20;286.70;;;;;;;4.25;60.46;101531.00;690763;28;22398;-70
2022/02/24 01:11:22;;;;;;;312.17;297.20;;;;;;;4.26;60.53;101532.66;689932;28;21568;-69
2022/02/24 01:11:43;;;;;;;351.38;334.48;;;;;;;4.27;60.40;101532.56;690537;28;44392;-69
2022/02/24 01:12:05;;;;;;;341.05;324.70;;;;;;;4.26;60.40;101516.63;691110;28;22355;-69
2022/02/24 01:12:26;;;;;;;326.70;311.05;;;;;;;4.27;60.39;101518.34;689565;28;69801;-69
2022/02/24 01:12:48;;;;;;;315.92;300.70;;;;;;;4.25;60.49;101517.63;690702;28;21534;-69
2022/02/24 01:13:09;;;;;;;301.27;286.73;;;;;;;4.26;60.52;101517.50;690252;28;45252;-70
2022/02/24 01:13:30;;;;;;;303.67;289.00;;;;;;;4.26;60.62;101516.63;691330;28;23555;-68
2022/02/24 01:13:52;;;;;;;318.88;303.50;;;;;;;4.25;60.59;101522.97;691112;28;22349;-69
2022/02/24 01:14:14;;;;;;;306.95;292.10;;;;;;;4.22;60.55;101513.34;691216;28;22393;-70
2022/02/24 01:14:36;;;;;;;307.10;292.25;;;;;;;4.22;60.54;101521.38;690270;28;45208;-69
2022/02/24 01:14:58;;;;;;;320.83;305.35;;;;;;;4.22;60.75;101512.50;689780;28;46318;-70
2022/02/24 01:15:19;;;;;;;306.80;292.00;;;;;;;4.20;60.70;101512.63;690426;28;45203;-70
2022/02/24 01:15:42;;;;;;;303.47;288.83;;;;;;;4.20;60.76;101511.75;691128;28;21491;-69
2022/02/24 01:16:03;;;;;;;331.02;314.90;;;;;;;4.19;60.70;101518.91;688895;28;69198;-69
2022/02/24 01:16:25;;;;;;;321.15;305.60;;;;;;;4.20;60.97;101517.09;689242;28;46252;-69
2022/02/24 01:16:47;;;;;;;307.08;292.30;;;;;;;4.20;60.95;101522.44;691320;28;21481;-68
2022/02/24 01:17:08;;;;;;;296.83;282.48;;;;;;;4.19;60.75;101507.38;690398;28;44393;-71
2022/02/24 01:17:29;;;;;;;325.70;310.08;;;;;;;4.19;60.83;101521.59;690355;28;22190;-70
2022/02/24 01:17:50;;;;;;;326.38;310.75;;;;;;;4.21;60.82;101513.47;691342;28;21518;-70
2022/02/24 01:18:12;;;;;;;312.10;297.17;;;;;;;4.17;60.66;101518.19;691197;28;22395;-69
2022/02/24 01:18:33;;;;;;;302.77;288.38;;;;;;;4.18;60.81;101519.88;689494;28;69408;-70
2022/02/24 01:18:54;;;;;;;306.25;291.67;;;;;;;4.18;60.73;101513.69;691112;28;22355;-68
2022/02/24 01:19:16;;;;;;;320.85;305.50;;;;;;;4.15;60.66;101515.63;691361;28;21274;-68
2022/02/24 01:19:37;;;;;;;307.92;293.17;;;;;;;4.16;60.66;101508.47;690377;28;47160;-67
2022/02/24 01:19:59;;;;;;;292.48;278.35;;;;;;;4.18;60.74;101508.34;690949;28;24509;-70
2022/02/24 01:20:20;;;;;;;300.42;286.02;;;;;;;4.18;60.92;101503.00;691203;28;23605;-67
2022/02/24 01:20:43;;;;;;;305.50;290.83;;;;;;;4.21;60.71;101503.59;690648;28;22429;-68
2022/02/24 01:21:04;;;;;;;280.27;266.73;;;;;;;4.22;60.78;101516.00;688639;28;92262;-69
2022/02/24 01:21:25;;;;;;;295.20;281.05;;;;;;;4.22;60.64;101508.00;690375;28;21492;-68
2022/02/24 01:21:46;;;;;;;319.42;304.23;;;;;;;4.22;60.62;101507.16;691158;28;23485;-68
2022/02/24 01:22:08;;;;;;;309.35;294.55;;;;;;;4.23;60.60;101503.50;691195;28;23504;-68
2022/02/24 01:22:30;;;;;;;301.27;286.85;;;;;;;4.23;60.72;101506.16;691362;28;1665;-67
2022/02/24 01:22:51;;;;;;;291.90;277.90;;;;;;;4.23;60.49;101508.84;690760;28;22390;-69
2022/02/24 01:23:14;;;;;;;304.00;289.35;;;;;;;4.22;60.72;101508.00;690834;28;23474;-69
2022/02/24 01:23:35;;;;;;;321.58;306.13;;;;;;;4.20;60.32;101511.75;689584;28;67930;-69
2022/02/24 01:23:57;;;;;;;307.30;292.52;;;;;;;4.19;60.37;101502.88;690975;28;23512;-69
2022/02/24 01:24:18;;;;;;;291.33;277.35;;;;;;;4.20;60.57;101507.28;690023;28;45255;-68
2022/02/24 01:24:39;;;;;;;293.13;278.98;;;;;;;4.20;60.40;101501.03;691006;28;21328;-69
2022/02/24 01:25:00;;;;;;;329.15;313.25;;;;;;;4.17;60.47;101499.47;690753;28;22367;-69
2022/02/24 01:25:21;;;;;;;319.42;304.02;;;;;;;4.20;60.50;101506.41;690801;28;21488;-68
2022/02/24 01:25:43;;;;;;;305.00;290.33;;;;;;;4.20;60.67;101493.03;690043;28;45270;-69
2022/02/24 01:26:04;;;;;;;296.58;282.10;;;;;;;4.21;60.43;101506.28;689836;28;44373;-69
2022/02/24 01:26:25;;;;;;;288.17;274.20;;;;;;;4.22;60.58;101494.63;690425;28;22390;-69
2022/02/24 01:26:46;;;;;;;306.48;291.63;;;;;;;4.21;60.42;101498.25;691173;28;21498;-68
2022/02/24 01:27:08;;;;;;;288.85;274.83;;;;;;;4.21;60.69;101495.59;691135;28;23448;-69
2022/02/24 01:27:29;;;;;;;275.83;262.42;;;;;;;4.23;60.57;101498.13;689851;28;46306;-68
2022/02/24 01:27:52;;;;;;;301.63;287.08;;;;;;;4.23;60.59;101496.34;690562;28;23462;-69
2022/02/24 01:28:13;;;;;;;312.77;297.73;;;;;;;4.24;60.56;101500.69;690001;28;44333;-68
2022/02/24 01:28:35;;;;;;;301.30;286.80;;;;;;;4.22;60.31;101501.81;691371;28;22348;-69
2022/02/24 01:28:56;;;;;;;289.92;275.92;;;;;;;4.21;60.52;101495.59;690332;28;45423;-69
2022/02/24 01:29:17;;;;;;;291.63;277.58;;;;;;;4.20;60.34;101498.38;690875;28;24499;-68
2022/02/24 01:29:38;;;;;;;313.30;298.23;;;;;;;4.21;60.48;101490.22;687642;28;23532;-69
2022/02/24 01:30:00;;;;;;;305.60;290.80;;;;;;;4.20;60.28;101493.03;687966;28;24170;-69
2022/02/24 01:30:21;;;;;;;294.90;280.65;;;;;;;4.19;60.32;101491.34;686712;28;67539;-69
2022/02/24 01:30:42;;;;;;;286.75;272.92;;;;;;;4.20;60.33;101495.69;685635;28;47227;-70
2022/02/24 01:31:03;;;;;;;329.75;313.88;;;;;;;4.20;60.34;101493.91;687853;28;22228;-68
2022/02/24 01:31:24;;;;;;;337.92;321.65;;;;;;;4.22;60.49;101489.28;687605;28;22375;-69
2022/02/24 01:31:46;;;;;;;326.63;310.85;;;;;;;4.24;60.50;101489.16;691197;28;21513;-69
2022/02/24 01:32:07;;;;;;;317.80;302.42;;;;;;;4.23;60.54;101485.66;690381;28;45257;-69
2022/02/24 01:32:29;;;;;;;309.13;294.17;;;;;;;4.26;60.28;101490.75;691820;28;1643;-69
2022/02/24 01:32:50;;;;;;;320.60;305.10;;;;;;;4.26;60.40;101487.22;691192;28;23492;-71
2022/02/24 01:33:12;;;;;;;346.20;329.48;;;;;;;4.26;60.12;101488.09;691113;28;24441;-69
2022/02/24 01:33:33;;;;;;;340.90;324.45;;;;;;;4.28;60.40;101487.97;689971;28;45092;-70
2022/02/24 01:33:54;;;;;;;332.38;316.30;;;;;;;4.26;60.27;101481.88;690587;28;21313;-69
2022/02/24 01:34:19;;;;;;;321.67;306.10;;;;;;;4.26;60.46;101489.88;689945;28;46489;-69
2022/02/24 01:34:41;;;;;;;349.52;332.67;;;;;;;4.27;60.50;101481.75;687995;28;113690;-69
2022/02/24 01:35:03;;;;;;;346.05;329.38;;;;;;;4.27;60.42;101484.41;689414;28;69797;-69
2022/02/24 01:35:24;;;;;;;332.90;316.85;;;;;;;4.20;60.19;101483.19;690779;28;23581;-69
2022/02/24 01:35:45;;;;;;;325.20;309.50;;;;;;;4.23;60.50;101484.78;690279;28;22449;-69
2022/02/24 01:36:07;;;;;;;354.70;337.60;;;;;;;4.23;60.52;101480.28;689563;28;46331;-68
2022/02/24 01:36:29;;;;;;;353.50;336.67;;;;;;;4.22;60.37;101483.94;689552;28;45261;-69
2022/02/24 01:36:50;;;;;;;337.92;321.83;;;;;;;4.22;60.53;101477.75;691250;28;22383;-69
2022/02/24 01:37:11;;;;;;;327.83;312.15;;;;;;;4.21;60.35;101479.53;690268;28;45045;-68
2022/02/24 01:37:33;;;;;;;340.75;324.45;;;;;;;4.22;60.61;101477.75;690978;28;22379;-68
2022/02/24 01:37:54;;;;;;;344.50;328.00;;;;;;;4.23;60.68;101479.41;690028;28;46367;-69
2022/02/24 01:38:17;;;;;;;330.75;314.92;;;;;;;4.23;60.62;101485.66;690980;28;22408;-68